Pagrindinis puslapis
METAR-TAF:

METAR-TAF

Oro uostai :

Kirkenesas, Norvegija

platuma: 69-44N, ilguma: 029-54E, Aukštis: 9 m

Dabartinis oras

Ataskaita buvo paskelbta 29 minutes, ne 20:50 UTC
Vėjas 6 kt iš Vakarų/Šiaurės Vakarų
Temperatūra 9°C
Drėgmė 87%
Slėgis 988 hPa
Matomumas 10 km arba daugiau
Mažai debesys ne aukštis 600 ft
Su prošvaistėmis ne aukštis 2200 ft
lietus

METAR: ENKR 062050Z 29006KT 9999 -RA FEW006 BKN022 09/07 Q0988 RMK WIND 731FT 28009KT

Laikas: 23:19 (21:19 UTC)

Prognozė

Ataskaita buvo paskelbta 1 valandą ir 19 minutes, ne 20:00 UTC
Prognozė galioja nuo 06 metu 21 UTC su 07 metu 06 UTC
Vėjas 8 kt iš Vakarų
Matomumas 10 km arba daugiau
Su prošvaistėmis ne aukštis 2500 ft
Tikimybė 30% :
Laikinai
nuo 06 metu 21 UTC su 06 metu 22 UTC
Su prošvaistėmis ne aukštis 1200 ft
lietus, dulksna

TAF: ENKR 062000Z 0621/0706 28008KT 9999 BKN025 PROB30 TEMPO 0621/0622 RADZ BKN012

Orai ataskaitas ir orų prognozės (METAR, TAF).

turimą stotys yra geltonos ir raudonos taškus žemėlapyje.

Perkelti pele per norėdami pamatyti stoties vardą.

Tada spustelėkite, norėdami matyti oro stebėjimo ir prognozės.

Norėdami pakeisti žemėlapį: spustelėkite ant žalios mygtukų su juodo kryžiaus žemyn,; žalią mygtuką su brūkšneliu, jei norite nutolinti; arba žalių rodyklių gretimoms žemėlapius.


METAR-TAF: